createdAt,value
2023-02-28T00:00:17.823Z,1.86
2023-02-28T00:03:23.013Z,1.82
2023-02-28T00:06:28.376Z,1.80
2023-02-28T00:09:34.920Z,1.91
2023-02-28T00:12:40.547Z,2.00
2023-02-28T00:15:46.419Z,2.02
2023-02-28T00:18:52.485Z,1.97
2023-02-28T00:21:57.706Z,1.83
2023-02-28T00:25:04.392Z,1.75
2023-02-28T00:28:11.918Z,1.74
2023-02-28T00:31:17.261Z,1.79
2023-02-28T00:34:22.332Z,1.75
2023-02-28T00:37:27.463Z,1.76
2023-02-28T00:40:34.011Z,1.85
2023-02-28T00:43:41.126Z,1.96
2023-02-28T00:46:46.131Z,1.82
2023-02-28T00:49:51.392Z,1.91
2023-02-28T00:52:56.443Z,1.90
2023-02-28T00:56:03.381Z,1.91
2023-02-28T00:59:08.633Z,2.04
2023-02-28T01:02:13.986Z,2.00
2023-02-28T01:05:19.191Z,2.03
2023-02-28T01:08:24.869Z,2.01
2023-02-28T01:11:31.249Z,2.04
2023-02-28T01:14:37.150Z,2.04
2023-02-28T01:17:42.284Z,2.20
2023-02-28T01:20:48.955Z,2.10
2023-02-28T01:23:55.254Z,2.21
2023-02-28T01:27:03.118Z,2.06
2023-02-28T01:30:11.774Z,2.08
2023-02-28T01:33:17.061Z,2.01
2023-02-28T01:36:24.876Z,2.11
2023-02-28T01:39:30.014Z,2.17
2023-02-28T01:42:36.667Z,2.13
2023-02-28T01:45:42.367Z,2.06
2023-02-28T01:48:50.811Z,1.98
2023-02-28T01:51:57.890Z,1.98
2023-02-28T01:55:05.210Z,1.91
2023-02-28T01:58:16.480Z,1.88
2023-02-28T02:01:23.513Z,1.88
2023-02-28T02:04:35.186Z,1.89
2023-02-28T02:07:43.213Z,1.88
2023-02-28T02:10:51.314Z,1.81
2023-02-28T02:14:13.270Z,1.77
2023-02-28T02:17:24.833Z,1.81
2023-02-28T02:21:04.119Z,1.79
2023-02-28T02:24:53.891Z,1.77
2023-02-28T02:28:27.794Z,1.90
2023-02-28T02:31:54.496Z,1.85
2023-02-28T02:35:07.005Z,1.78
2023-02-28T02:38:16.413Z,1.76
2023-02-28T02:41:25.595Z,1.66
2023-02-28T02:44:32.883Z,1.58
2023-02-28T02:47:38.876Z,1.56
2023-02-28T02:50:49.067Z,1.58
2023-02-28T02:53:57.071Z,1.56
2023-02-28T02:57:04.265Z,1.66
2023-02-28T03:00:12.570Z,1.68
2023-02-28T03:03:21.769Z,1.63
2023-02-28T03:06:28.808Z,1.67
2023-02-28T03:09:36.583Z,1.63
2023-02-28T03:12:47.387Z,1.71
2023-02-28T03:16:06.260Z,1.59
2023-02-28T03:19:26.440Z,1.58
2023-02-28T03:22:50.772Z,1.51
2023-02-28T03:26:01.473Z,1.55
2023-02-28T03:29:11.887Z,1.51
2023-02-28T03:32:22.755Z,1.53
2023-02-28T03:35:30.925Z,1.50
2023-02-28T03:38:41.303Z,1.55
2023-02-28T03:41:48.901Z,1.50
2023-02-28T03:44:56.440Z,1.55
2023-02-28T03:48:05.501Z,1.60
2023-02-28T03:51:13.886Z,1.46
2023-02-28T03:54:22.131Z,1.31
2023-02-28T03:57:36.884Z,1.34
2023-02-28T04:00:44.692Z,1.31
2023-02-28T04:03:49.888Z,1.31
2023-02-28T04:06:55.399Z,1.38
2023-02-28T04:10:02.574Z,1.32
2023-02-28T04:13:07.992Z,1.30
2023-02-28T04:16:24.494Z,1.25
2023-02-28T04:19:37.540Z,1.31
2023-02-28T04:22:42.591Z,1.23
2023-02-28T04:25:49.353Z,1.13
2023-02-28T04:28:54.464Z,1.08
2023-02-28T04:32:00.505Z,1.13
2023-02-28T04:35:06.387Z,1.16
2023-02-28T04:38:15.679Z,1.16
2023-02-28T04:41:22.427Z,1.20
2023-02-28T04:44:27.593Z,1.18
2023-02-28T04:47:32.706Z,1.14
2023-02-28T04:50:37.930Z,1.11
2023-02-28T04:53:44.654Z,1.19
2023-02-28T04:56:51.427Z,1.13
2023-02-28T04:59:56.529Z,1.08
2023-02-28T05:03:01.714Z,1.07
2023-02-28T05:06:07.102Z,1.01
2023-02-28T05:09:13.669Z,1.00
2023-02-28T05:12:19.837Z,1.03
2023-02-28T05:15:25.033Z,1.07
2023-02-28T05:18:30.718Z,1.07
2023-02-28T05:21:37.387Z,1.05
2023-02-28T05:24:43.788Z,1.08
2023-02-28T05:27:50.674Z,0.98
2023-02-28T05:30:55.778Z,1.01
2023-02-28T05:34:01.223Z,1.01
2023-02-28T05:37:06.343Z,0.99
2023-02-28T05:40:13.998Z,1.01
2023-02-28T05:43:22.822Z,1.02
2023-02-28T05:46:27.911Z,0.96
2023-02-28T05:49:32.698Z,0.99
2023-02-28T05:52:38.394Z,1.00
2023-02-28T05:55:43.593Z,1.01
2023-02-28T05:58:50.104Z,0.99
2023-02-28T06:01:57.057Z,1.02
2023-02-28T06:05:02.189Z,1.06
2023-02-28T06:08:08.288Z,1.08
2023-02-28T06:11:13.423Z,1.14
2023-02-28T06:14:22.125Z,1.15
2023-02-28T06:17:27.227Z,1.14
2023-02-28T06:20:32.394Z,1.16
2023-02-28T06:23:37.201Z,1.17
2023-02-28T06:26:43.639Z,1.20
2023-02-28T06:29:50.056Z,1.23
2023-02-28T06:32:56.395Z,1.26
2023-02-28T06:36:01.705Z,1.27
2023-02-28T06:39:06.864Z,1.31
2023-02-28T06:42:12.700Z,1.39
2023-02-28T06:45:19.776Z,1.42
2023-02-28T06:48:24.902Z,1.49
2023-02-28T06:51:30.268Z,1.57
2023-02-28T06:54:35.684Z,1.62
2023-02-28T06:57:40.897Z,1.65
2023-02-28T07:00:48.166Z,1.73
2023-02-28T07:03:53.428Z,1.77
2023-02-28T07:06:58.745Z,1.82
2023-02-28T07:10:03.713Z,1.89
2023-02-28T07:13:09.839Z,1.94
2023-02-28T07:16:17.362Z,1.98
2023-02-28T07:19:22.535Z,2.04
2023-02-28T07:22:27.721Z,2.08
2023-02-28T07:25:35.192Z,2.10
2023-02-28T07:28:40.387Z,2.13
2023-02-28T07:31:47.929Z,2.14
2023-02-28T07:34:53.105Z,2.11
2023-02-28T07:37:59.513Z,2.17
2023-02-28T07:41:06.260Z,2.14
2023-02-28T07:44:12.278Z,2.16
2023-02-28T07:47:18.905Z,2.21
2023-02-28T07:50:26.792Z,2.25
2023-02-28T07:53:32.670Z,2.31
2023-02-28T07:56:37.971Z,2.34
2023-02-28T07:59:44.224Z,2.43
2023-02-28T08:02:52.595Z,2.55
2023-02-28T08:05:57.945Z,2.58
2023-02-28T08:09:03.077Z,2.64
2023-02-28T08:12:08.707Z,2.70
2023-02-28T08:15:14.143Z,2.78
2023-02-28T08:18:20.910Z,2.85
2023-02-28T08:21:25.738Z,2.94
2023-02-28T08:24:32.205Z,3.02
2023-02-28T08:27:38.864Z,3.03
2023-02-28T08:30:43.938Z,3.12
2023-02-28T08:33:52.213Z,3.17
2023-02-28T08:36:57.506Z,3.18
2023-02-28T08:40:02.884Z,3.25
2023-02-28T08:43:08.435Z,3.29
2023-02-28T08:46:15.821Z,3.38
2023-02-28T08:49:22.386Z,3.32
2023-02-28T08:52:27.675Z,3.32
2023-02-28T08:55:32.774Z,3.34
2023-02-28T08:58:38.508Z,3.44
2023-02-28T09:01:44.650Z,3.47
2023-02-28T09:04:51.212Z,3.56
2023-02-28T09:07:57.809Z,3.60
2023-02-28T09:11:04.019Z,3.66
2023-02-28T09:14:09.237Z,3.64
2023-02-28T09:17:14.383Z,3.69
2023-02-28T09:20:21.624Z,3.68
2023-02-28T09:23:27.097Z,3.72
2023-02-28T09:26:38.680Z,3.74
2023-02-28T09:29:48.450Z,3.90
2023-02-28T09:32:54.762Z,3.90
2023-02-28T09:36:05.179Z,4.00
2023-02-28T09:39:10.507Z,4.14
2023-02-28T09:42:24.586Z,4.21
2023-02-28T09:45:33.726Z,4.30
2023-02-28T09:48:43.582Z,4.41
2023-02-28T09:51:55.601Z,4.46
2023-02-28T09:55:23.423Z,4.58
2023-02-28T09:58:34.573Z,4.62
2023-02-28T10:01:44.711Z,4.63
2023-02-28T10:04:56.008Z,4.68
2023-02-28T10:08:09.286Z,4.70
2023-02-28T10:11:17.660Z,4.82
2023-02-28T10:14:24.965Z,4.80
2023-02-28T10:17:49.247Z,4.92
2023-02-28T10:21:01.846Z,5.02
2023-02-28T10:24:18.998Z,5.04
2023-02-28T10:27:25.839Z,5.16
2023-02-28T10:30:31.421Z,5.18
2023-02-28T10:33:38.100Z,5.13
2023-02-28T10:36:45.173Z,5.18
2023-02-28T10:39:52.230Z,5.23
2023-02-28T10:43:01.866Z,5.15
2023-02-28T10:46:16.007Z,5.15
2023-02-28T10:49:24.076Z,5.15
2023-02-28T10:52:41.629Z,5.25
2023-02-28T10:55:48.107Z,5.30
2023-02-28T10:58:56.135Z,5.35
2023-02-28T11:02:01.458Z,5.37
2023-02-28T11:05:27.591Z,5.35
2023-02-28T11:08:32.746Z,5.34
2023-02-28T11:11:47.527Z,5.36
2023-02-28T11:14:54.789Z,5.44
2023-02-28T11:18:02.820Z,5.52
2023-02-28T11:21:08.399Z,5.68
2023-02-28T11:24:22.039Z,5.84
2023-02-28T11:27:49.263Z,5.92
2023-02-28T11:31:05.016Z,5.99
2023-02-28T11:34:28.724Z,6.11
2023-02-28T11:37:34.446Z,6.17
2023-02-28T11:40:46.279Z,6.29
2023-02-28T11:44:03.203Z,6.23
2023-02-28T11:47:15.107Z,6.11
2023-02-28T11:50:29.610Z,6.17
2023-02-28T11:54:02.106Z,6.07
2023-02-28T11:57:21.070Z,5.92
2023-02-28T12:00:43.239Z,5.92
2023-02-28T12:03:55.858Z,5.98
2023-02-28T12:07:06.155Z,5.90
2023-02-28T12:10:21.117Z,5.95
2023-02-28T12:13:31.492Z,5.98
2023-02-28T12:16:48.917Z,6.10
2023-02-28T12:20:01.525Z,6.01
2023-02-28T12:23:24.593Z,6.04
2023-02-28T12:26:37.346Z,6.32
2023-02-28T12:29:48.470Z,6.21
2023-02-28T12:32:57.642Z,6.33
2023-02-28T12:36:06.046Z,6.47
2023-02-28T12:39:15.258Z,6.47
2023-02-28T12:42:24.795Z,6.47
2023-02-28T12:45:39.169Z,6.50
2023-02-28T12:48:49.039Z,6.49
2023-02-28T12:51:54.665Z,6.41
2023-02-28T12:55:05.883Z,6.49
2023-02-28T12:58:15.880Z,6.60
2023-02-28T13:01:45.872Z,6.70
2023-02-28T13:05:22.983Z,6.67
2023-02-28T13:08:44.186Z,6.67
2023-02-28T13:11:50.302Z,6.55
2023-02-28T13:15:07.309Z,6.58
2023-02-28T13:18:33.014Z,6.60
2023-02-28T13:21:45.734Z,6.59
2023-02-28T13:24:52.797Z,6.67
2023-02-28T13:28:01.925Z,6.75
2023-02-28T13:31:08.245Z,6.82
2023-02-28T13:34:18.237Z,6.84
2023-02-28T13:37:39.266Z,6.78
2023-02-28T13:40:44.393Z,6.74
2023-02-28T13:44:07.065Z,6.65
2023-02-28T13:47:32.311Z,6.59
2023-02-28T13:50:39.143Z,6.60
2023-02-28T13:54:00.462Z,6.47
2023-02-28T13:57:15.643Z,6.47
2023-02-28T14:00:31.352Z,6.41
2023-02-28T14:03:49.033Z,6.40
2023-02-28T14:06:54.641Z,6.54
2023-02-28T14:10:06.591Z,6.38
2023-02-28T14:13:31.518Z,6.25
2023-02-28T14:16:42.924Z,6.23
2023-02-28T14:19:51.050Z,6.22
2023-02-28T14:23:04.919Z,6.27
2023-02-28T14:26:22.081Z,6.19
2023-02-28T14:29:38.640Z,6.29
2023-02-28T14:32:48.584Z,6.27
2023-02-28T14:36:04.325Z,6.25
2023-02-28T14:39:13.526Z,6.23
2023-02-28T14:42:32.312Z,6.26
2023-02-28T14:45:38.546Z,6.21
2023-02-28T14:48:43.853Z,6.11
2023-02-28T14:51:50.251Z,6.13
2023-02-28T14:54:56.967Z,6.11
2023-02-28T14:58:07.502Z,6.15
2023-02-28T15:01:13.779Z,6.16
2023-02-28T15:04:25.610Z,6.10
2023-02-28T15:07:31.306Z,6.13
2023-02-28T15:10:36.741Z,6.05
2023-02-28T15:13:46.373Z,6.03
2023-02-28T15:16:55.422Z,5.91
2023-02-28T15:20:00.365Z,5.83
2023-02-28T15:23:05.646Z,5.70
2023-02-28T15:26:15.078Z,5.64
2023-02-28T15:29:24.025Z,5.56
2023-02-28T15:32:30.893Z,5.52
2023-02-28T15:35:36.773Z,5.47
2023-02-28T15:38:42.012Z,5.40
2023-02-28T15:41:47.521Z,5.41
2023-02-28T15:44:53.936Z,5.32
2023-02-28T15:48:02.672Z,5.28
2023-02-28T15:51:20.274Z,5.26
2023-02-28T15:54:29.581Z,5.08
2023-02-28T15:57:34.385Z,5.00
2023-02-28T16:00:40.978Z,5.01
2023-02-28T16:03:48.354Z,4.86
2023-02-28T16:07:04.904Z,4.87
2023-02-28T16:10:11.718Z,4.94
2023-02-28T16:13:17.066Z,4.88
2023-02-28T16:16:26.770Z,4.85
2023-02-28T16:19:33.806Z,4.87
2023-02-28T16:22:39.671Z,4.62
2023-02-28T16:25:47.132Z,4.43
2023-02-28T16:28:53.378Z,4.46
2023-02-28T16:32:00.171Z,4.32
2023-02-28T16:35:05.495Z,4.37
2023-02-28T16:38:11.027Z,4.44
2023-02-28T16:41:19.967Z,4.45
2023-02-28T16:44:30.379Z,4.55
2023-02-28T16:47:36.849Z,4.43
2023-02-28T16:50:42.296Z,4.55
2023-02-28T16:53:47.772Z,4.43
2023-02-28T16:56:53.194Z,4.40
2023-02-28T16:59:58.448Z,4.34
2023-02-28T17:03:07.472Z,4.61
2023-02-28T17:06:20.422Z,4.64
2023-02-28T17:09:40.081Z,4.68
2023-02-28T17:12:46.833Z,4.55
2023-02-28T17:15:52.182Z,4.40
2023-02-28T17:19:01.426Z,4.37
2023-02-28T17:22:06.616Z,4.31
2023-02-28T17:25:13.277Z,4.24
2023-02-28T17:28:18.567Z,4.20
2023-02-28T17:31:23.861Z,4.19
2023-02-28T17:34:30.371Z,4.23
2023-02-28T17:37:35.594Z,4.54
2023-02-28T17:40:40.713Z,4.41
2023-02-28T17:43:45.883Z,4.46
2023-02-28T17:46:51.706Z,4.40
2023-02-28T17:49:58.208Z,4.35
2023-02-28T17:53:03.119Z,4.21
2023-02-28T17:56:10.999Z,4.35
2023-02-28T17:59:16.582Z,4.34
2023-02-28T18:02:21.885Z,4.30
2023-02-28T18:05:29.733Z,4.26
2023-02-28T18:08:36.276Z,4.24
2023-02-28T18:11:44.900Z,4.33
2023-02-28T18:14:50.086Z,4.26
2023-02-28T18:17:56.643Z,4.27
2023-02-28T18:21:03.611Z,4.23
2023-02-28T18:24:08.801Z,4.22
2023-02-28T18:27:15.463Z,4.22
2023-02-28T18:30:22.261Z,4.24
2023-02-28T18:33:27.445Z,4.35
2023-02-28T18:36:34.061Z,4.26
2023-02-28T18:39:39.083Z,4.25
2023-02-28T18:42:44.564Z,4.23
2023-02-28T18:45:50.103Z,4.20
2023-02-28T18:48:55.575Z,4.23
2023-02-28T18:52:02.048Z,4.33
2023-02-28T18:55:08.494Z,4.17
2023-02-28T18:58:14.583Z,4.16
2023-02-28T19:01:21.494Z,4.17
2023-02-28T19:04:26.650Z,4.11
2023-02-28T19:07:33.370Z,4.09
2023-02-28T19:10:41.300Z,4.07
2023-02-28T19:13:46.912Z,4.11
2023-02-28T19:16:52.887Z,4.08
2023-02-28T19:19:57.935Z,4.14
2023-02-28T19:23:04.483Z,3.95
2023-02-28T19:26:12.387Z,3.90
2023-02-28T19:29:17.410Z,4.01
2023-02-28T19:32:23.092Z,3.93
2023-02-28T19:35:28.320Z,3.94
2023-02-28T19:38:34.897Z,3.83
2023-02-28T19:41:40.209Z,3.94
2023-02-28T19:44:46.079Z,4.11
2023-02-28T19:47:51.186Z,4.14
2023-02-28T19:50:59.121Z,4.42
2023-02-28T19:54:05.851Z,4.16
2023-02-28T19:57:12.918Z,4.23
2023-02-28T20:00:21.730Z,4.24
2023-02-28T20:03:27.183Z,4.14
2023-02-28T20:06:33.861Z,4.09
2023-02-28T20:09:40.718Z,4.28
2023-02-28T20:12:45.610Z,4.65
2023-02-28T20:15:50.950Z,4.38
2023-02-28T20:18:56.218Z,4.26
2023-02-28T20:22:02.840Z,4.40
2023-02-28T20:25:11.524Z,4.28
2023-02-28T20:28:25.458Z,4.30
2023-02-28T20:31:30.719Z,4.27
2023-02-28T20:34:36.056Z,4.29
2023-02-28T20:37:41.389Z,4.33
2023-02-28T20:40:47.682Z,4.33
2023-02-28T20:43:58.173Z,4.43
2023-02-28T20:47:03.797Z,4.27
2023-02-28T20:50:10.838Z,4.15
2023-02-28T20:53:16.325Z,4.09
2023-02-28T20:56:23.795Z,4.33
2023-02-28T20:59:28.929Z,4.02
2023-02-28T21:02:34.150Z,3.86
2023-02-28T21:05:39.339Z,3.74
2023-02-28T21:08:44.763Z,4.00
2023-02-28T21:11:55.957Z,3.77
2023-02-28T21:15:01.142Z,3.71
2023-02-28T21:18:06.695Z,3.54
2023-02-28T21:21:15.155Z,3.54
2023-02-28T21:24:20.979Z,4.05
2023-02-28T21:27:27.521Z,4.54
2023-02-28T21:30:32.689Z,4.27
2023-02-28T21:33:38.182Z,4.46
2023-02-28T21:36:47.526Z,4.71
2023-02-28T21:39:52.642Z,4.68
2023-02-28T21:42:59.156Z,4.60
2023-02-28T21:46:04.882Z,4.55
2023-02-28T21:49:10.592Z,4.37
2023-02-28T21:52:15.703Z,4.53
2023-02-28T21:55:22.285Z,4.33
2023-02-28T21:58:28.803Z,4.19
2023-02-28T22:01:35.855Z,4.08
2023-02-28T22:04:40.994Z,4.18
2023-02-28T22:07:46.905Z,4.21
2023-02-28T22:10:51.729Z,4.37
2023-02-28T22:14:00.044Z,4.20
2023-02-28T22:17:05.253Z,4.08
2023-02-28T22:20:14.169Z,4.07
2023-02-28T22:23:19.258Z,4.25
2023-02-28T22:26:25.000Z,4.44
2023-02-28T22:29:31.605Z,4.28
2023-02-28T22:32:37.689Z,4.32
2023-02-28T22:35:42.881Z,4.33
2023-02-28T22:38:50.879Z,4.45
2023-02-28T22:41:57.263Z,4.32
2023-02-28T22:45:04.146Z,4.48
2023-02-28T22:48:11.881Z,4.35
2023-02-28T22:51:19.011Z,4.38
2023-02-28T22:54:23.774Z,4.30
2023-02-28T22:57:29.243Z,4.28
2023-02-28T23:00:35.691Z,4.38
2023-02-28T23:03:42.082Z,4.50
2023-02-28T23:06:47.534Z,4.43
2023-02-28T23:09:54.732Z,4.48
2023-02-28T23:13:00.694Z,4.30
2023-02-28T23:16:09.779Z,4.34
2023-02-28T23:19:18.693Z,4.31
2023-02-28T23:22:23.969Z,4.28
2023-02-28T23:25:29.238Z,4.10
2023-02-28T23:28:34.111Z,4.16
2023-02-28T23:31:40.718Z,4.15
2023-02-28T23:34:46.051Z,3.93
2023-02-28T23:37:50.988Z,4.04
2023-02-28T23:40:56.253Z,4.09
2023-02-28T23:44:04.225Z,3.96
2023-02-28T23:47:14.016Z,4.00
2023-02-28T23:50:19.460Z,3.94
2023-02-28T23:53:24.356Z,3.96
2023-02-28T23:56:30.704Z,3.89
2023-02-28T23:59:36.223Z,3.90
